Time;durP1;ratioP1;P1;durP2;ratioP2;P2;SDS_P1;SDS_P2;PMS_P1;PMS_P2;Temp;Humidity;BMP_temperature;BMP_pressure;BME280_temperature;BME280_humidity;BME280_pressure;Samples;Min_cycle;Max_cycle;Signal;HPM_P1;HPM_P2
2022/03/23 00:00:31;;;;;;;;;;;256.20;1075.20;;;;;;4945671;29;19913;-57
2022/03/23 00:02:56;;;;;;;;;;;256.10;1075.20;;;;;;4945705;29;19918;-57
2022/03/23 00:05:25;;;;;;;;;;;256.10;1075.20;;;;;;4941468;28;19906;-58
2022/03/23 00:07:50;;;;;;;;;;;256.10;1075.20;;;;;;4940985;29;20373;-58
2022/03/23 00:10:16;;;;;;;;;;;256.00;1075.20;;;;;;4939314;28;19930;-56
2022/03/23 00:12:44;;;;;;;;;;;256.00;1075.20;;;;;;4935004;29;20267;-56
2022/03/23 00:15:10;;;;;;;;;;;256.00;1075.20;;;;;;4930790;29;19918;-57
2022/03/23 00:17:35;;;;;;;;;;;231.30;1075.20;;;;;;4935908;29;19914;-57
2022/03/23 00:20:01;;;;;;;;;;;231.30;1075.20;;;;;;4935407;29;19974;-56
2022/03/23 00:22:27;;;;;;;;;;;231.30;1100.80;;;;;;4939663;29;19915;-56
2022/03/23 00:24:56;;;;;;;;;;;231.20;1100.80;;;;;;4938893;29;19918;-56
2022/03/23 00:27:21;;;;;;;;;;;231.10;1100.80;;;;;;4941424;29;20419;-57
2022/03/23 00:29:48;;;;;;;;;;;231.10;1100.80;;;;;;4942888;29;19910;-56
2022/03/23 00:32:16;;;;;;;;;;;231.00;1100.80;;;;;;4945057;29;19954;-56
2022/03/23 00:34:42;;;;;;;;;;;231.00;1100.80;;;;;;4943950;29;19907;-57
2022/03/23 00:37:07;;;;;;;;;;;230.90;1126.40;;;;;;4943603;29;19914;-57
2022/03/23 00:39:33;;;;;;;;;;;230.90;1126.40;;;;;;4942959;29;19970;-57
2022/03/23 00:41:59;;;;;;;;;;;230.80;1126.40;;;;;;4942388;28;19972;-56
2022/03/23 00:44:24;;;;;;;;;;;230.80;1126.40;;;;;;4945304;29;19937;-56
2022/03/23 00:46:50;;;;;;;;;;;230.80;1126.40;;;;;;4944823;28;19914;-57
2022/03/23 00:49:15;;;;;;;;;;;230.80;1126.40;;;;;;4945669;29;19907;-57
2022/03/23 00:51:41;;;;;;;;;;;230.80;1126.40;;;;;;4942549;29;19914;-57
2022/03/23 00:54:09;;;;;;;;;;;230.80;1126.40;;;;;;4943833;29;19913;-57
2022/03/23 00:56:36;;;;;;;;;;;230.70;1126.40;;;;;;4943797;28;19918;-56
2022/03/23 00:59:02;;;;;;;;;;;230.70;1126.40;;;;;;4945511;29;20351;-57
2022/03/23 01:01:29;;;;;;;;;;;230.60;1152.00;;;;;;4940422;28;19914;-57
2022/03/23 01:03:54;;;;;;;;;;;230.60;1152.00;;;;;;4944839;29;19914;-57
2022/03/23 01:06:20;;;;;;;;;;;230.60;1152.00;;;;;;4943385;29;19933;-58
2022/03/23 01:08:46;;;;;;;;;;;230.60;1152.00;;;;;;4942294;29;19907;-57
2022/03/23 01:11:11;;;;;;;;;;;230.50;1152.00;;;;;;4944473;29;20241;-57
2022/03/23 01:13:37;;;;;;;;;;;230.50;1152.00;;;;;;4946137;29;19907;-57
2022/03/23 01:16:04;;;;;;;;;;;230.40;1152.00;;;;;;4937343;29;19916;-57
2022/03/23 01:18:29;;;;;;;;;;;230.40;1152.00;;;;;;4944795;29;19907;-56
2022/03/23 01:20:55;;;;;;;;;;;230.40;1152.00;;;;;;4944753;29;19918;-57
2022/03/23 01:23:20;;;;;;;;;;;205.70;1177.60;;;;;;4942265;28;20383;-56
2022/03/23 01:25:46;;;;;;;;;;;205.70;1177.60;;;;;;4942596;29;19907;-57
2022/03/23 01:28:12;;;;;;;;;;;205.70;1177.60;;;;;;4941846;28;19906;-57
2022/03/23 01:30:38;;;;;;;;;;;205.60;1177.60;;;;;;4945377;29;19936;-57
2022/03/23 01:33:03;;;;;;;;;;;205.60;1177.60;;;;;;4942679;28;19918;-56
2022/03/23 01:35:29;;;;;;;;;;;205.60;1177.60;;;;;;4944845;29;19906;-56
2022/03/23 01:37:54;;;;;;;;;;;205.40;1203.20;;;;;;4943473;28;19919;-56
2022/03/23 01:40:20;;;;;;;;;;;205.40;1203.20;;;;;;4943008;29;19922;-56
2022/03/23 01:42:45;;;;;;;;;;;205.30;1203.20;;;;;;4942002;29;19942;-56
2022/03/23 01:45:11;;;;;;;;;;;205.20;1203.20;;;;;;4942248;29;19917;-57
2022/03/23 01:47:37;;;;;;;;;;;205.10;1228.80;;;;;;4941214;28;19910;-56
2022/03/23 01:50:04;;;;;;;;;;;205.10;1228.80;;;;;;4944207;29;19914;-56
2022/03/23 01:52:31;;;;;;;;;;;205.10;1228.80;;;;;;4943260;29;19950;-57
2022/03/23 01:54:58;;;;;;;;;;;205.10;1228.80;;;;;;4943245;29;20268;-57
2022/03/23 01:57:23;;;;;;;;;;;205.10;1228.80;;;;;;4942869;29;19915;-57
2022/03/23 01:59:49;;;;;;;;;;;205.00;1228.80;;;;;;4944073;29;20378;-57
2022/03/23 02:02:15;;;;;;;;;;;205.00;1228.80;;;;;;4941745;29;20721;-56
2022/03/23 02:04:41;;;;;;;;;;;205.00;1228.80;;;;;;4940035;29;19967;-56
2022/03/23 02:07:06;;;;;;;;;;;204.90;1254.40;;;;;;4940107;29;19939;-58
2022/03/23 02:09:32;;;;;;;;;;;204.80;1254.40;;;;;;4941940;29;19910;-58
2022/03/23 02:12:01;;;;;;;;;;;204.80;1254.40;;;;;;4941205;29;20348;-57
2022/03/23 02:14:27;;;;;;;;;;;204.80;1254.40;;;;;;4938382;29;19993;-57
2022/03/23 02:16:52;;;;;;;;;;;180.10;1254.40;;;;;;4941739;29;20427;-57
2022/03/23 02:19:18;;;;;;;;;;;180.10;1254.40;;;;;;4938727;29;19981;-57
2022/03/23 02:21:44;;;;;;;;;;;204.80;1254.40;;;;;;4939886;29;19913;-57
2022/03/23 02:24:10;;;;;;;;;;;180.10;1254.40;;;;;;4939821;29;20013;-58
2022/03/23 02:26:37;;;;;;;;;;;180.00;1254.40;;;;;;4941931;29;19917;-58
2022/03/23 02:29:04;;;;;;;;;;;180.00;1280.00;;;;;;4939955;29;19946;-57
2022/03/23 02:31:30;;;;;;;;;;;180.00;1280.00;;;;;;4939690;29;19914;-57
2022/03/23 02:33:56;;;;;;;;;;;179.90;1280.00;;;;;;4940265;29;19921;-57
2022/03/23 02:36:21;;;;;;;;;;;179.90;1280.00;;;;;;4939757;29;19993;-57
2022/03/23 02:38:47;;;;;;;;;;;179.80;1305.60;;;;;;4939561;29;20360;-57
2022/03/23 02:41:13;;;;;;;;;;;179.80;1305.60;;;;;;4939954;29;20352;-58
2022/03/23 02:43:39;;;;;;;;;;;179.70;1305.60;;;;;;4941202;29;19911;-57
2022/03/23 02:46:05;;;;;;;;;;;179.70;1305.60;;;;;;4939227;29;19961;-58
2022/03/23 02:48:30;;;;;;;;;;;179.60;1305.60;;;;;;4939431;29;19993;-56
2022/03/23 02:50:56;;;;;;;;;;;179.60;1305.60;;;;;;4938435;29;19910;-57
2022/03/23 03:01:52;;;;;;;;;;;179.50;1305.60;;;;;;4938584;29;19954;-57
2022/03/23 03:04:18;;;;;;;;;;;179.50;1331.20;;;;;;4937968;29;19906;-57
2022/03/23 03:06:43;;;;;;;;;;;179.40;1331.20;;;;;;4939427;29;19915;-57
2022/03/23 03:09:09;;;;;;;;;;;179.40;1331.20;;;;;;4939313;29;19934;-57
2022/03/23 03:11:35;;;;;;;;;;;179.40;1331.20;;;;;;4941274;29;19907;-57
2022/03/23 03:14:00;;;;;;;;;;;179.30;1331.20;;;;;;4939500;29;20417;-57
2022/03/23 03:16:26;;;;;;;;;;;179.30;1331.20;;;;;;4938719;29;19970;-57
2022/03/23 03:18:52;;;;;;;;;;;179.30;1331.20;;;;;;4938709;29;20014;-57
2022/03/23 03:21:18;;;;;;;;;;;179.30;1331.20;;;;;;4938763;29;19942;-57
2022/03/23 03:23:44;;;;;;;;;;;179.20;1331.20;;;;;;4939982;29;19925;-57
2022/03/23 03:26:10;;;;;;;;;;;179.20;1356.80;;;;;;4938861;29;19984;-57
2022/03/23 03:28:37;;;;;;;;;;;179.20;1331.20;;;;;;4940751;29;20268;-57
2022/03/23 03:31:03;;;;;;;;;;;154.50;1356.80;;;;;;4939255;29;19906;-56
2022/03/23 03:33:29;;;;;;;;;;;154.50;1356.80;;;;;;4938641;28;19914;-57
2022/03/23 03:35:55;;;;;;;;;;;154.40;1356.80;;;;;;4938611;29;20241;-57
2022/03/23 03:38:20;;;;;;;;;;;154.40;1356.80;;;;;;4938345;29;19970;-57
2022/03/23 03:40:46;;;;;;;;;;;154.30;1356.80;;;;;;4943305;29;19977;-57
2022/03/23 03:43:12;;;;;;;;;;;154.30;1356.80;;;;;;4938827;29;19945;-57
2022/03/23 03:45:38;;;;;;;;;;;154.30;1356.80;;;;;;4940961;29;19907;-57
2022/03/23 03:48:03;;;;;;;;;;;154.20;1382.40;;;;;;4938845;29;20317;-57
2022/03/23 03:50:29;;;;;;;;;;;154.20;1382.40;;;;;;4938379;29;19906;-58
2022/03/23 03:52:55;;;;;;;;;;;154.20;1382.40;;;;;;4938970;29;19914;-58
2022/03/23 03:55:20;;;;;;;;;;;154.10;1382.40;;;;;;4936333;29;19914;-57
2022/03/23 03:57:47;;;;;;;;;;;154.10;1382.40;;;;;;4936275;29;19946;-57
2022/03/23 04:00:13;;;;;;;;;;;154.10;1382.40;;;;;;4936575;29;19934;-57
2022/03/23 04:02:38;;;;;;;;;;;154.10;1382.40;;;;;;4936986;29;19973;-58
2022/03/23 04:05:04;;;;;;;;;;;154.10;1382.40;;;;;;4936769;29;20376;-58
2022/03/23 04:07:33;;;;;;;;;;;154.00;1382.40;;;;;;4937102;29;19974;-57
2022/03/23 04:10:03;;;;;;;;;;;154.00;1382.40;;;;;;4936953;29;20360;-58
2022/03/23 04:12:28;;;;;;;;;;;153.90;1408.00;;;;;;4936703;29;19906;-57
2022/03/23 04:14:54;;;;;;;;;;;153.80;1408.00;;;;;;4947881;29;19911;-57
2022/03/23 04:17:19;;;;;;;;;;;153.80;1408.00;;;;;;4956011;29;19918;-58
2022/03/23 04:19:45;;;;;;;;;;;153.70;1408.00;;;;;;4955987;29;19913;-58
2022/03/23 04:22:12;;;;;;;;;;;153.70;1408.00;;;;;;4955758;29;19941;-58
2022/03/23 04:24:38;;;;;;;;;;;153.70;1433.60;;;;;;4955679;29;19921;-57
2022/03/23 04:27:04;;;;;;;;;;;128.90;1433.60;;;;;;4956238;29;20312;-58
2022/03/23 04:29:29;;;;;;;;;;;153.60;1433.60;;;;;;4955613;29;19907;-58
2022/03/23 04:31:55;;;;;;;;;;;128.80;1433.60;;;;;;4941597;29;19918;-57
2022/03/23 04:34:20;;;;;;;;;;;128.70;1433.60;;;;;;4936504;29;19950;-57
2022/03/23 04:36:46;;;;;;;;;;;128.60;1459.20;;;;;;4936301;29;20368;-57
2022/03/23 04:39:12;;;;;;;;;;;128.60;1459.20;;;;;;4936521;29;19953;-58
2022/03/23 04:41:37;;;;;;;;;;;128.50;1484.80;;;;;;4936643;29;19907;-57
2022/03/23 04:44:03;;;;;;;;;;;128.50;1459.20;;;;;;4936617;29;20363;-57
2022/03/23 04:46:28;;;;;;;;;;;128.40;1459.20;;;;;;4936541;29;20365;-57
2022/03/23 04:48:54;;;;;;;;;;;128.30;1484.80;;;;;;4942570;29;19910;-57
2022/03/23 04:51:20;;;;;;;;;;;128.40;1484.80;;;;;;4955352;29;19957;-58
2022/03/23 04:53:46;;;;;;;;;;;128.30;1484.80;;;;;;4955582;29;19907;-55
2022/03/23 04:56:11;;;;;;;;;;;128.20;1484.80;;;;;;4955560;29;19910;-57
2022/03/23 04:58:37;;;;;;;;;;;128.30;1484.80;;;;;;4955459;29;20061;-56
2022/03/23 05:01:03;;;;;;;;;;;128.30;1484.80;;;;;;4955458;29;19906;-56
2022/03/23 05:03:28;;;;;;;;;;;128.40;1484.80;;;;;;4955317;29;19906;-56
2022/03/23 05:05:54;;;;;;;;;;;128.40;1484.80;;;;;;4953613;28;19910;-55
2022/03/23 05:08:19;;;;;;;;;;;128.40;1484.80;;;;;;4958801;29;20369;-55
2022/03/23 05:10:45;;;;;;;;;;;128.50;1484.80;;;;;;4958938;29;19906;-57
2022/03/23 05:13:11;;;;;;;;;;;128.50;1484.80;;;;;;4958749;29;19998;-57
2022/03/23 05:15:37;;;;;;;;;;;128.60;1484.80;;;;;;4958959;29;19907;-57
2022/03/23 05:18:03;;;;;;;;;;;128.60;1484.80;;;;;;4958720;29;20013;-56
2022/03/23 05:20:29;;;;;;;;;;;128.70;1484.80;;;;;;4952544;29;19918;-56
2022/03/23 05:22:54;;;;;;;;;;;128.70;1484.80;;;;;;4939536;29;19919;-56
2022/03/23 05:25:21;;;;;;;;;;;128.70;1484.80;;;;;;4938806;29;19965;-56
2022/03/23 05:27:46;;;;;;;;;;;128.80;1459.20;;;;;;4939694;29;19907;-57
2022/03/23 05:30:13;;;;;;;;;;;128.80;1459.20;;;;;;4939577;29;20292;-57
2022/03/23 05:32:39;;;;;;;;;;;128.80;1459.20;;;;;;4939653;29;19907;-56
2022/03/23 05:35:05;;;;;;;;;;;128.80;1459.20;;;;;;4948869;29;19954;-57
2022/03/23 05:37:31;;;;;;;;;;;128.80;1459.20;;;;;;4956882;29;20020;-56
2022/03/23 05:39:56;;;;;;;;;;;128.90;1459.20;;;;;;4958271;29;19949;-56
2022/03/23 05:42:22;;;;;;;;;;;153.60;1459.20;;;;;;4941027;29;20004;-57
2022/03/23 05:44:47;;;;;;;;;;;153.60;1459.20;;;;;;4958446;29;19914;-56
2022/03/23 05:47:13;;;;;;;;;;;153.80;1459.20;;;;;;4958184;29;19907;-56
2022/03/23 05:49:39;;;;;;;;;;;153.90;1433.60;;;;;;4958145;29;19990;-56
2022/03/23 05:52:05;;;;;;;;;;;154.00;1433.60;;;;;;4958359;29;20000;-56
2022/03/23 05:54:30;;;;;;;;;;;154.00;1433.60;;;;;;4941092;29;19919;-56
2022/03/23 05:56:56;;;;;;;;;;;154.10;1408.00;;;;;;4939139;29;19914;-56
2022/03/23 05:59:22;;;;;;;;;;;154.30;1408.00;;;;;;4938827;29;19917;-56
2022/03/23 06:01:47;;;;;;;;;;;154.30;1408.00;;;;;;4939261;29;19953;-58
2022/03/23 06:04:13;;;;;;;;;;;154.40;1408.00;;;;;;4953250;29;19907;-56
2022/03/23 06:06:39;;;;;;;;;;;154.50;1382.40;;;;;;4938996;29;19907;-56
2022/03/23 06:09:04;;;;;;;;;;;154.50;1382.40;;;;;;4952473;29;20287;-56
2022/03/23 06:11:30;;;;;;;;;;;154.50;1382.40;;;;;;4957813;29;19997;-56
2022/03/23 06:13:57;;;;;;;;;;;179.20;1382.40;;;;;;4957764;29;20379;-57
2022/03/23 06:16:23;;;;;;;;;;;179.30;1382.40;;;;;;4957660;29;19930;-57
2022/03/23 06:18:48;;;;;;;;;;;179.40;1382.40;;;;;;4957063;28;19906;-56
2022/03/23 06:21:14;;;;;;;;;;;179.50;1382.40;;;;;;4957601;29;19913;-56
2022/03/23 06:23:39;;;;;;;;;;;179.60;1382.40;;;;;;4956204;29;19953;-56
2022/03/23 06:26:05;;;;;;;;;;;179.80;1356.80;;;;;;4957526;29;19925;-56
2022/03/23 06:28:31;;;;;;;;;;;180.00;1331.20;;;;;;4957732;29;19906;-57
2022/03/23 06:30:58;;;;;;;;;;;180.10;1331.20;;;;;;4957463;29;20325;-57
2022/03/23 06:33:23;;;;;;;;;;;204.90;1305.60;;;;;;4957623;29;19906;-57
2022/03/23 06:35:49;;;;;;;;;;;205.10;1305.60;;;;;;4957594;29;20009;-57
2022/03/23 06:38:15;;;;;;;;;;;205.30;1280.00;;;;;;4957156;29;19910;-57
2022/03/23 06:40:41;;;;;;;;;;;205.50;1280.00;;;;;;4957326;29;19925;-56
2022/03/23 06:43:06;;;;;;;;;;;205.60;1254.40;;;;;;4955657;29;19907;-56
2022/03/23 06:45:32;;;;;;;;;;;230.40;1254.40;;;;;;4957042;29;19910;-57
2022/03/23 06:47:58;;;;;;;;;;;230.50;1228.80;;;;;;4957141;29;19962;-57
2022/03/23 06:50:23;;;;;;;;;;;230.70;1203.20;;;;;;4957243;29;19961;-57
2022/03/23 06:52:49;;;;;;;;;;;256.40;1152.00;;;;;;4956948;29;20375;-57
2022/03/23 06:55:15;;;;;;;;;;;307.30;1075.20;;;;;;4956985;29;20378;-57
2022/03/23 06:57:40;;;;;;;;;;;358.50;972.80;;;;;;4955220;29;19918;-57
2022/03/23 07:00:12;;;;;;;;;;;409.80;844.80;;;;;;4956785;29;19926;-57
2022/03/23 07:02:42;;;;;;;;;;;461.00;742.40;;;;;;4956876;29;19913;-58
2022/03/23 07:05:09;;;;;;;;;;;487.20;665.60;;;;;;4956766;29;19907;-58
2022/03/23 07:07:35;;;;;;;;;;;538.00;665.60;;;;;;4956800;29;20416;-58
2022/03/23 07:10:01;;;;;;;;;;;564.10;614.40;;;;;;4956345;29;19910;-58
2022/03/23 07:12:27;;;;;;;;;;;589.50;588.80;;;;;;4956724;29;20004;-59
2022/03/23 07:14:52;;;;;;;;;;;614.90;512.00;;;;;;4955035;29;20359;-60
2022/03/23 07:17:18;;;;;;;;;;;640.80;460.80;;;;;;4950927;28;19923;-60
2022/03/23 07:19:44;;;;;;;;;;;640.40;460.80;;;;;;4916812;29;19911;-61
2022/03/23 07:22:11;;;;;;;;;;;665.80;460.80;;;;;;4917698;29;19957;-61
2022/03/23 07:24:37;;;;;;;;;;;691.70;435.20;;;;;;4915789;29;20009;-61
2022/03/23 07:27:03;;;;;;;;;;;716.80;435.20;;;;;;4917605;29;19990;-62
2022/03/23 07:29:28;;;;;;;;;;;717.50;409.60;;;;;;4917055;29;20416;-62
2022/03/23 07:31:54;;;;;;;;;;;742.40;435.20;;;;;;4931242;29;19915;-62
2022/03/23 07:34:19;;;;;;;;;;;717.40;409.60;;;;;;4936141;29;19917;-60
2022/03/23 07:36:47;;;;;;;;;;;691.70;435.20;;;;;;4936059;29;20021;-61
2022/03/23 07:39:20;;;;;;;;;;;666.10;460.80;;;;;;4936301;28;19914;-61
2022/03/23 07:41:50;;;;;;;;;;;640.20;512.00;;;;;;4935522;29;19910;-61
2022/03/23 07:44:17;;;;;;;;;;;615.30;537.60;;;;;;4938552;29;19930;-60
2022/03/23 07:46:42;;;;;;;;;;;614.50;537.60;;;;;;4939871;29;19910;-60
2022/03/23 07:49:08;;;;;;;;;;;589.40;563.20;;;;;;4938820;29;20272;-60
2022/03/23 07:51:34;;;;;;;;;;;564.00;588.80;;;;;;4939597;28;19969;-60
2022/03/23 07:53:59;;;;;;;;;;;563.80;614.40;;;;;;4936987;29;20001;-60
2022/03/23 07:56:25;;;;;;;;;;;563.90;614.40;;;;;;4936218;29;20361;-61
2022/03/23 07:58:50;;;;;;;;;;;563.80;640.00;;;;;;4936135;29;19911;-60
2022/03/23 08:01:16;;;;;;;;;;;589.20;588.80;;;;;;4934457;29;19961;-61
2022/03/23 08:03:42;;;;;;;;;;;589.50;563.20;;;;;;4935525;29;19915;-60
2022/03/23 08:06:07;;;;;;;;;;;614.90;537.60;;;;;;4935061;29;19934;-63
2022/03/23 08:08:33;;;;;;;;;;;640.80;486.40;;;;;;4918732;29;19907;-61
2022/03/23 08:10:58;;;;;;;;;;;666.10;486.40;;;;;;4916436;29;19911;-63
2022/03/23 08:13:24;;;;;;;;;;;691.80;435.20;;;;;;4953897;29;19911;-62
2022/03/23 08:15:49;;;;;;;;;;;717.70;435.20;;;;;;4942929;29;20301;-62
2022/03/23 08:18:17;;;;;;;;;;;743.10;409.60;;;;;;4935913;29;19910;-61
2022/03/23 08:20:43;;;;;;;;;;;768.40;384.00;;;;;;4948060;28;20399;-62
2022/03/23 08:23:10;;;;;;;;;;;793.80;384.00;;;;;;4954956;28;20009;-61
2022/03/23 08:25:41;;;;;;;;;;;768.80;358.40;;;;;;4949514;29;19914;-61
2022/03/23 08:28:07;;;;;;;;;;;794.50;358.40;;;;;;4935716;29;19979;-61
2022/03/23 08:30:33;;;;;;;;;;;845.10;358.40;;;;;;4935537;29;19913;-61
2022/03/23 08:32:59;;;;;;;;;;;870.90;332.80;;;;;;4935490;29;19907;-62
2022/03/23 08:35:25;;;;;;;;;;;896.40;281.60;;;;;;4934977;29;19913;-61
2022/03/23 08:37:51;;;;;;;;;;;921.70;307.20;;;;;;4935452;29;19919;-63
2022/03/23 08:40:17;;;;;;;;;;;922.30;281.60;;;;;;4935835;29;19942;-63
2022/03/23 08:42:42;;;;;;;;;;;947.30;281.60;;;;;;4950185;29;19953;-63
2022/03/23 08:45:08;;;;;;;;;;;922.50;281.60;;;;;;4924046;29;20347;-61
2022/03/23 08:47:35;;;;;;;;;;;947.90;281.60;;;;;;4939178;29;19906;-61
2022/03/23 08:50:01;;;;;;;;;;;948.00;281.60;;;;;;4938869;29;19915;-61
2022/03/23 08:52:29;;;;;;;;;;;973.30;307.20;;;;;;4937878;29;19907;-62
2022/03/23 08:54:55;;;;;;;;;;;973.70;307.20;;;;;;4939045;29;19953;-60
2022/03/23 08:57:22;;;;;;;;;;;972.80;307.20;;;;;;4938339;29;20438;-61
2022/03/23 08:59:48;;;;;;;;;;;972.90;307.20;;;;;;4938793;29;19942;-61
2022/03/23 09:02:14;;;;;;;;;;;973.20;307.20;;;;;;4938864;29;19949;-62
2022/03/23 09:04:39;;;;;;;;;;;973.30;307.20;;;;;;4938532;29;19907;-61
2022/03/23 09:07:05;;;;;;;;;;;973.00;307.20;;;;;;4938765;29;20412;-61
2022/03/23 09:09:30;;;;;;;;;;;973.60;307.20;;;;;;4939054;29;20268;-60
2022/03/23 09:11:56;;;;;;;;;;;948.00;281.60;;;;;;4944762;29;19917;-60
2022/03/23 09:14:22;;;;;;;;;;;947.60;281.60;;;;;;4945417;29;19910;-60
2022/03/23 09:16:47;;;;;;;;;;;998.50;332.80;;;;;;4938152;29;20312;-61
2022/03/23 09:19:14;;;;;;;;;;;948.00;281.60;;;;;;4938606;29;19906;-62
2022/03/23 09:21:40;;;;;;;;;;;999.20;332.80;;;;;;4938221;29;19998;-61
2022/03/23 09:24:06;;;;;;;;;;;999.00;332.80;;;;;;4938542;29;20001;-61
2022/03/23 09:26:31;;;;;;;;;;;1050.00;358.40;;;;;;4938192;29;19915;-62
2022/03/23 09:28:58;;;;;;;;;;;1075.20;358.40;;;;;;4938228;29;20412;-61
2022/03/23 09:31:23;;;;;;;;;;;1049.90;358.40;;;;;;4938472;29;19911;-60
2022/03/23 09:33:49;;;;;;;;;;;999.10;332.80;;;;;;4937444;29;20003;-62
2022/03/23 09:38:59;;;;;;;;;;;1050.30;358.40;;;;;;4938327;29;19917;-63
2022/03/23 09:41:25;;;;;;;;;;;1076.00;358.40;;;;;;4938285;29;19993;-63
2022/03/23 09:43:52;;;;;;;;;;;1101.60;384.00;;;;;;4934484;29;19977;-63
2022/03/23 09:46:18;;;;;;;;;;;1101.10;384.00;;;;;;4937967;29;19907;-60
2022/03/23 09:48:43;;;;;;;;;;;1050.10;358.40;;;;;;4936918;29;19922;-60
2022/03/23 09:51:09;;;;;;;;;;;1076.00;358.40;;;;;;4938305;29;19993;-58
2022/03/23 09:53:35;;;;;;;;;;;1101.70;384.00;;;;;;4937725;29;20396;-62
2022/03/23 09:56:01;;;;;;;;;;;1126.70;409.60;;;;;;4933959;29;19911;-62
2022/03/23 09:58:27;;;;;;;;;;;1127.20;409.60;;;;;;4937721;29;19911;-61
2022/03/23 10:00:52;;;;;;;;;;;1075.80;358.40;;;;;;4937971;29;19994;-62
2022/03/23 10:03:36;;;;;;;;;;;1101.30;384.00;;;;;;4937199;29;19914;-62
2022/03/23 10:06:20;;;;;;;;;;;1101.30;384.00;;;;;;4949494;29;19914;-62
2022/03/23 10:08:49;;;;;;;;;;;1075.30;358.40;;;;;;4937299;29;19993;-61
2022/03/23 10:11:23;;;;;;;;;;;1050.40;358.40;;;;;;4938857;29;19907;-60
2022/03/23 10:14:08;;;;;;;;;;;1101.30;384.00;;;;;;4949278;28;19942;-61
2022/03/23 10:16:45;;;;;;;;;;;1050.50;358.40;;;;;;4935426;29;19918;-61
2022/03/23 10:19:13;;;;;;;;;;;1101.30;384.00;;;;;;4932760;29;19918;-61
2022/03/23 10:21:42;;;;;;;;;;;1100.90;384.00;;;;;;4936930;29;20014;-60
2022/03/23 10:24:07;;;;;;;;;;;1101.60;384.00;;;;;;4945877;29;19924;-61
2022/03/23 10:26:36;;;;;;;;;;;1075.80;358.40;;;;;;4954901;29;20001;-61
2022/03/23 10:29:02;;;;;;;;;;;1101.60;384.00;;;;;;4942262;29;19998;-61
2022/03/23 10:31:28;;;;;;;;;;;1127.30;409.60;;;;;;4937483;29;20261;-60
2022/03/23 10:34:07;;;;;;;;;;;1126.60;409.60;;;;;;4936340;29;20001;-61
2022/03/23 10:36:33;;;;;;;;;;;1126.60;409.60;;;;;;4936895;29;19906;-60
2022/03/23 10:39:04;;;;;;;;;;;1126.60;409.60;;;;;;4936601;29;19906;-61
2022/03/23 10:41:30;;;;;;;;;;;1127.30;409.60;;;;;;4940248;29;19914;-60
2022/03/23 10:43:56;;;;;;;;;;;1127.20;409.60;;;;;;4955738;28;20280;-60
2022/03/23 10:46:22;;;;;;;;;;;1127.20;409.60;;;;;;4943187;29;19992;-59
2022/03/23 10:48:53;;;;;;;;;;;1177.90;409.60;;;;;;4936611;28;19956;-59
2022/03/23 10:51:32;;;;;;;;;;;1178.40;409.60;;;;;;4942206;29;19907;-59
2022/03/23 10:53:58;;;;;;;;;;;1203.60;435.20;;;;;;4942193;28;20265;-60
2022/03/23 10:56:30;;;;;;;;;;;1178.10;409.60;;;;;;4940028;29;19913;-59
2022/03/23 10:59:28;;;;;;;;;;;1152.80;409.60;;;;;;4939837;29;19917;-61
2022/03/23 11:01:55;;;;;;;;;;;1127.20;409.60;;;;;;4883425;29;19964;-60
2022/03/23 11:04:20;;;;;;;;;;;1126.50;409.60;;;;;;4885655;29;19939;-61
2022/03/23 11:06:46;;;;;;;;;;;1101.60;384.00;;;;;;4885276;29;20018;-60
2022/03/23 11:15:46;;;;;;;;;;;1126.40;409.60;;;;;;4884881;29;20035;-61
2022/03/23 11:17:45;;;;;;;;;;;1049.60;358.40;;;;;;4882838;29;19914;-59
2022/03/23 11:20:13;;;;;;;;;;;1050.20;358.40;;;;;;4887911;29;19924;-60
2022/03/23 11:22:40;;;;;;;;;;;1126.40;409.60;;;;;;4888559;29;19923;-60
2022/03/23 11:25:05;;;;;;;;;;;1101.60;384.00;;;;;;4889243;29;19923;-60
2022/03/23 11:27:32;;;;;;;;;;;1127.00;409.60;;;;;;4893359;29;20067;-61
2022/03/23 11:29:58;;;;;;;;;;;1152.60;409.60;;;;;;4884098;29;19922;-61
2022/03/23 11:32:27;;;;;;;;;;;1126.90;409.60;;;;;;4885935;29;20349;-62
2022/03/23 11:34:55;;;;;;;;;;;1152.60;409.60;;;;;;4882256;29;20281;-62
2022/03/23 11:37:21;;;;;;;;;;;1152.80;409.60;;;;;;4912488;29;20407;-59
2022/03/23 11:39:47;;;;;;;;;;;1127.00;409.60;;;;;;4940811;28;19906;-60
2022/03/23 11:42:13;;;;;;;;;;;1075.40;358.40;;;;;;4938507;29;20280;-61
2022/03/23 11:44:40;;;;;;;;;;;1075.60;358.40;;;;;;4938119;29;19906;-61
2022/03/23 11:47:07;;;;;;;;;;;1100.80;384.00;;;;;;4935158;28;19922;-61
2022/03/23 11:49:45;;;;;;;;;;;1126.50;409.60;;;;;;4936368;29;19985;-61
2022/03/23 11:52:17;;;;;;;;;;;1101.50;384.00;;;;;;4935969;29;19919;-60
2022/03/23 11:57:48;;;;;;;;;;;1049.90;358.40;;;;;;4936457;29;19933;-62
2022/03/23 12:00:18;;;;;;;;;;;1049.80;358.40;;;;;;4954261;29;19910;-60
2022/03/23 12:02:43;;;;;;;;;;;1076.00;358.40;;;;;;4955941;29;20439;-61
2022/03/23 12:05:25;;;;;;;;;;;1101.00;384.00;;;;;;4955917;29;19906;-61
2022/03/23 12:07:51;;;;;;;;;;;1101.30;384.00;;;;;;4938508;29;19929;-59
2022/03/23 12:10:21;;;;;;;;;;;1101.70;384.00;;;;;;4922315;29;20253;-60
2022/03/23 12:12:46;;;;;;;;;;;1126.90;409.60;;;;;;4937698;29;19907;-59
2022/03/23 12:15:25;;;;;;;;;;;1024.80;332.80;;;;;;4933402;29;19925;-60
2022/03/23 12:17:53;;;;;;;;;;;1049.60;358.40;;;;;;4941339;29;19961;-59
2022/03/23 12:20:40;;;;;;;;;;;1050.00;358.40;;;;;;4936396;29;19997;-59
2022/03/23 12:23:06;;;;;;;;;;;1050.50;358.40;;;;;;4935886;29;19923;-59
2022/03/23 12:25:31;;;;;;;;;;;1049.80;358.40;;;;;;4936157;29;19961;-60
2022/03/23 12:28:05;;;;;;;;;;;1049.60;358.40;;;;;;4932678;29;19918;-61
2022/03/23 12:30:31;;;;;;;;;;;999.10;332.80;;;;;;4936458;29;20412;-61
2022/03/23 12:32:57;;;;;;;;;;;998.60;332.80;;;;;;4936443;29;19906;-60
2022/03/23 12:35:30;;;;;;;;;;;973.60;307.20;;;;;;4936439;29;20411;-60
2022/03/23 12:37:57;;;;;;;;;;;999.30;332.80;;;;;;4936498;29;19914;-59
2022/03/23 12:40:23;;;;;;;;;;;1050.40;358.40;;;;;;4936166;29;19906;-60
2022/03/23 12:42:48;;;;;;;;;;;1075.30;358.40;;;;;;4936604;29;20340;-60
2022/03/23 12:45:16;;;;;;;;;;;1100.90;384.00;;;;;;4936735;29;19907;-60
2022/03/23 12:47:56;;;;;;;;;;;1101.40;384.00;;;;;;4936356;29;19915;-60
2022/03/23 12:59:15;;;;;;;;;;;1075.50;358.40;;;;;;4936561;29;19966;-61
2022/03/23 13:01:41;;;;;;;;;;;999.10;332.80;;;;;;4936734;29;20276;-61
2022/03/23 13:04:06;;;;;;;;;;;1049.70;358.40;;;;;;4935997;29;19919;-60
2022/03/23 13:06:33;;;;;;;;;;;1024.30;332.80;;;;;;4936110;29;20037;-61
2022/03/23 13:08:59;;;;;;;;;;;947.40;281.60;;;;;;4931851;29;19950;-60
2022/03/23 13:11:26;;;;;;;;;;;947.90;281.60;;;;;;4935818;29;19993;-60
2022/03/23 13:13:52;;;;;;;;;;;922.40;281.60;;;;;;4940481;29;19917;-61
2022/03/23 13:16:19;;;;;;;;;;;947.20;281.60;;;;;;4936912;29;20006;-61
2022/03/23 13:18:45;;;;;;;;;;;947.30;281.60;;;;;;4937310;29;20370;-61
2022/03/23 13:21:16;;;;;;;;;;;948.00;281.60;;;;;;4939618;29;20249;-58
2022/03/23 13:23:43;;;;;;;;;;;973.50;307.20;;;;;;4940059;29;19941;-61
2022/03/23 13:26:12;;;;;;;;;;;998.50;332.80;;;;;;4925235;29;19915;-61
2022/03/23 13:28:40;;;;;;;;;;;1024.30;332.80;;;;;;4934173;29;20001;-61
2022/03/23 13:31:07;;;;;;;;;;;1024.60;332.80;;;;;;4942594;29;19910;-60
2022/03/23 13:33:36;;;;;;;;;;;1024.90;332.80;;;;;;4942468;29;19993;-61
2022/03/23 13:36:03;;;;;;;;;;;1050.00;358.40;;;;;;4939633;29;19907;-59
2022/03/23 13:38:35;;;;;;;;;;;998.90;332.80;;;;;;4958333;29;20366;-61
2022/03/23 13:43:45;;;;;;;;;;;973.00;307.20;;;;;;4936955;29;19939;-60
2022/03/23 13:46:11;;;;;;;;;;;947.50;281.60;;;;;;4940935;29;19911;-59
2022/03/23 13:48:36;;;;;;;;;;;921.90;281.60;;;;;;4945336;29;19907;-60
2022/03/23 13:51:02;;;;;;;;;;;870.50;256.00;;;;;;4940330;29;19906;-60
2022/03/23 13:53:28;;;;;;;;;;;844.90;281.60;;;;;;4938422;29;19990;-62
2022/03/23 13:55:55;;;;;;;;;;;820.10;256.00;;;;;;4942086;29;20447;-61
2022/03/23 13:58:22;;;;;;;;;;;819.20;281.60;;;;;;4940294;29;19997;-61
2022/03/23 14:00:50;;;;;;;;;;;794.10;307.20;;;;;;4940436;29;19914;-61
2022/03/23 14:03:22;;;;;;;;;;;794.40;307.20;;;;;;4940130;29;19907;-61
2022/03/23 14:06:03;;;;;;;;;;;793.70;332.80;;;;;;4937887;29;19989;-62
2022/03/23 14:08:29;;;;;;;;;;;794.50;281.60;;;;;;4938961;29;19921;-62
2022/03/23 14:10:55;;;;;;;;;;;845.40;256.00;;;;;;4938569;29;19993;-60
2022/03/23 14:13:21;;;;;;;;;;;871.20;256.00;;;;;;4936250;29;20001;-60